Wanborough, United Kingdom
Current Conditions -  °F | °C
As of 11:08 AM on Monday 20 Oct 2014 (Local Time) from EGVA Reporting Station
Light Rain Light Rain  
Wind Chill: 55°   Ceiling: 1400
Heat Index: 55°   Visibility: 6mi
Dew Point: 52°   Wind: 14mph
Humidity: 88%   Direction: 240°WSW
Pressure: 30.01"   Gusts: NA
Location:  51.54°N, 1.7°W
Report Text: EGVA 201008Z AUTO 24012KT 9999 -RA BKN014 BKN021 OVC029 13/11 A3001 RMK AO2 RAB0957DZE0957
Loading
Personal Weather Stations






























Interactive Weather Map
Tropical Storm Tracking
New forecast layout! Learn more

10-Day Weather Forecast

Advertisements
Track Severe Weather on mobile